createdAt,value
2022-09-07T00:00:08.778Z,98815.63
2022-09-07T00:02:55.344Z,98821.00
2022-09-07T00:05:46.791Z,98817.69
2022-09-07T00:08:33.011Z,98796.25
2022-09-07T00:11:19.907Z,98791.91
2022-09-07T00:14:07.671Z,98791.91
2022-09-07T00:16:54.063Z,98742.63
2022-09-07T00:19:40.637Z,98749.94
2022-09-07T00:22:26.831Z,98787.47
2022-09-07T00:25:13.481Z,98795.28
2022-09-07T00:27:59.965Z,98790.84
2022-09-07T00:30:46.221Z,98760.06
2022-09-07T00:33:32.538Z,98773.00
2022-09-07T00:36:20.377Z,98770.41
2022-09-07T00:39:06.988Z,98754.38
2022-09-07T00:41:56.374Z,98744.94
2022-09-07T00:44:42.661Z,98758.66
2022-09-07T00:47:41.442Z,98754.53
2022-09-07T00:50:36.653Z,98753.78
2022-09-07T00:53:30.742Z,98748.97
2022-09-07T00:56:17.285Z,98713.53
2022-09-07T00:59:05.057Z,98742.50
2022-09-07T01:01:51.803Z,98727.97
2022-09-07T01:04:39.417Z,98700.78
2022-09-07T01:07:26.108Z,98730.56
2022-09-07T01:10:13.093Z,98729.81
2022-09-07T01:13:00.321Z,98715.16
2022-09-07T01:16:16.808Z,98703.72
2022-09-07T01:19:20.773Z,98722.44
2022-09-07T01:22:44.809Z,98743.25
2022-09-07T01:25:43.468Z,98745.84
2022-09-07T01:28:35.158Z,98724.63
2022-09-07T01:31:38.572Z,98742.78
2022-09-07T01:34:26.337Z,98736.59
2022-09-07T01:37:31.179Z,98757.13
2022-09-07T01:40:59.859Z,98767.38
2022-09-07T01:43:52.360Z,98767.38
2022-09-07T01:47:10.672Z,98777.56
2022-09-07T01:50:12.131Z,98773.84
2022-09-07T01:53:04.304Z,98779.09
2022-09-07T01:55:57.838Z,98768.72
2022-09-07T01:58:46.470Z,98780.69
2022-09-07T02:01:41.723Z,98780.50
2022-09-07T02:04:37.151Z,98784.84
2022-09-07T02:07:29.520Z,98790.09
2022-09-07T02:10:27.396Z,98775.88
2022-09-07T02:13:21.770Z,98769.88
2022-09-07T02:16:28.631Z,98835.25
2022-09-07T02:19:17.170Z,98833.56
2022-09-07T02:22:10.088Z,98830.38
2022-09-07T02:25:00.855Z,98874.28
2022-09-07T02:27:55.171Z,98860.50
2022-09-07T02:30:42.794Z,98868.97
2022-09-07T02:33:30.303Z,98870.47
2022-09-07T02:36:20.601Z,98857.44
2022-09-07T02:39:07.330Z,98844.31
2022-09-07T02:41:53.766Z,98854.56
2022-09-07T02:44:42.805Z,98877.84
2022-09-07T02:48:02.553Z,98876.16
2022-09-07T02:51:36.875Z,98870.16
2022-09-07T02:54:46.310Z,98854.63
2022-09-07T02:57:56.562Z,98851.16
2022-09-07T03:00:52.858Z,98822.91
2022-09-07T03:04:08.466Z,98847.72
2022-09-07T03:07:11.793Z,98826.50
2022-09-07T03:10:00.653Z,98857.59
2022-09-07T03:12:49.166Z,98841.19
2022-09-07T03:15:35.822Z,98837.16
2022-09-07T03:18:23.147Z,98845.72
2022-09-07T03:21:10.165Z,98842.50
2022-09-07T03:23:56.713Z,98836.59
2022-09-07T03:26:46.201Z,98841.72
2022-09-07T03:29:32.847Z,98816.09
2022-09-07T03:32:19.170Z,98823.00
2022-09-07T03:35:07.466Z,98841.81
2022-09-07T03:37:53.791Z,98834.28
2022-09-07T03:40:40.269Z,98823.31
2022-09-07T03:43:27.239Z,98857.69
2022-09-07T03:46:18.057Z,98831.91
2022-09-07T03:49:04.751Z,98815.63
2022-09-07T03:51:50.863Z,98859.38
2022-09-07T03:54:39.645Z,98799.50
2022-09-07T03:57:26.427Z,98830.47
2022-09-07T04:00:14.604Z,98834.66
2022-09-07T04:03:00.870Z,98822.00
2022-09-07T04:05:47.355Z,98839.38
2022-09-07T04:08:35.393Z,98845.47
2022-09-07T04:11:21.676Z,98848.28
2022-09-07T04:14:09.373Z,98855.34
2022-09-07T04:16:55.766Z,98855.41
2022-09-07T04:19:42.181Z,98853.03
2022-09-07T04:22:28.573Z,98813.81
2022-09-07T04:25:15.658Z,98860.19
2022-09-07T04:28:02.310Z,98843.09
2022-09-07T04:30:49.074Z,98850.94
2022-09-07T04:33:36.526Z,98833.84
2022-09-07T04:36:24.643Z,98852.81
2022-09-07T04:39:11.417Z,98818.72
2022-09-07T04:41:57.943Z,98829.88
2022-09-07T04:44:44.218Z,98855.69
2022-09-07T04:47:31.390Z,98858.25
2022-09-07T04:50:18.282Z,98837.75
2022-09-07T04:53:04.482Z,98805.16
2022-09-07T04:55:50.953Z,98817.06
2022-09-07T04:58:37.275Z,98846.34
2022-09-07T05:01:26.141Z,98853.22
2022-09-07T05:04:12.758Z,98825.06
2022-09-07T05:06:59.093Z,98855.06
2022-09-07T05:09:45.443Z,98825.19
2022-09-07T05:12:31.822Z,98850.81
2022-09-07T05:15:18.079Z,98846.44
2022-09-07T05:18:04.506Z,98815.41
2022-09-07T05:20:50.661Z,98864.97
2022-09-07T05:23:37.173Z,98853.84
2022-09-07T05:26:25.704Z,98866.38
2022-09-07T05:32:18.576Z,98828.28
2022-09-07T05:35:05.603Z,98851.97
2022-09-07T05:37:52.252Z,98848.38
2022-09-07T05:40:40.835Z,98861.81
2022-09-07T05:43:27.623Z,98885.50
2022-09-07T05:46:15.650Z,98911.31
2022-09-07T05:49:03.245Z,98870.56
2022-09-07T05:51:49.841Z,98860.56
2022-09-07T05:54:36.289Z,98888.22
2022-09-07T05:57:22.554Z,98864.66
2022-09-07T06:00:09.666Z,98891.63
2022-09-07T06:02:58.702Z,98889.22
2022-09-07T06:05:45.343Z,98900.88
2022-09-07T06:08:33.462Z,98863.47
2022-09-07T06:11:22.081Z,98872.53
2022-09-07T06:14:09.878Z,98875.53
2022-09-07T06:16:56.324Z,98877.31
2022-09-07T06:19:42.876Z,98875.25
2022-09-07T06:22:31.127Z,98867.56
2022-09-07T06:25:17.978Z,98909.13
2022-09-07T06:28:04.599Z,98886.94
2022-09-07T06:30:50.964Z,98877.78
2022-09-07T06:33:37.678Z,98887.47
2022-09-07T06:36:27.741Z,98884.16
2022-09-07T06:39:14.405Z,98874.81
2022-09-07T06:42:00.963Z,98880.75
2022-09-07T06:44:50.005Z,98880.22
2022-09-07T06:47:36.909Z,98870.38
2022-09-07T06:50:23.653Z,98882.03
2022-09-07T06:56:18.477Z,98891.84
2022-09-07T06:59:04.905Z,98865.59
2022-09-07T07:01:51.176Z,98864.84
2022-09-07T07:04:40.836Z,98868.38
2022-09-07T07:07:27.901Z,98883.59
2022-09-07T07:10:14.218Z,98864.59
2022-09-07T07:13:00.792Z,98897.47
2022-09-07T07:15:47.342Z,98890.09
2022-09-07T07:18:35.172Z,98849.22
2022-09-07T07:21:22.560Z,98893.88
2022-09-07T07:24:09.057Z,98852.63
2022-09-07T07:26:55.747Z,98890.22
2022-09-07T07:29:42.853Z,98904.56
2022-09-07T07:32:29.422Z,98872.56
2022-09-07T07:35:16.149Z,98914.13
2022-09-07T07:44:17.446Z,98913.56
2022-09-07T07:47:04.135Z,98914.13
2022-09-07T07:50:30.497Z,98942.97
2022-09-07T07:56:05.489Z,98933.84
2022-09-07T07:58:52.808Z,98919.97
2022-09-07T08:01:39.184Z,98920.53
2022-09-07T08:04:25.401Z,98924.56
2022-09-07T08:07:12.166Z,98935.25
2022-09-07T08:09:59.117Z,98930.34
2022-09-07T08:12:46.902Z,98943.63
2022-09-07T08:15:39.733Z,98907.91
2022-09-07T08:18:26.714Z,98956.81
2022-09-07T08:52:18.768Z,98784.47
2022-09-07T08:55:17.990Z,98941.00
2022-09-07T08:58:26.990Z,98939.28
2022-09-07T09:01:37.524Z,98950.31
2022-09-07T09:04:27.638Z,98952.44
2022-09-07T09:07:31.529Z,98942.59
2022-09-07T09:10:36.641Z,98943.53
2022-09-07T09:13:50.145Z,98940.94
2022-09-07T09:16:48.337Z,98934.34
2022-09-07T09:19:56.703Z,98929.22
2022-09-07T09:22:43.249Z,98933.47
2022-09-07T09:25:36.567Z,98903.66
2022-09-07T09:28:24.652Z,98898.28
2022-09-07T09:31:20.754Z,98901.88
2022-09-07T09:34:14.336Z,98916.69
2022-09-07T09:37:00.863Z,98903.06
2022-09-07T09:40:00.676Z,98895.59
2022-09-07T09:43:01.780Z,98907.44
2022-09-07T09:49:20.059Z,98887.50
2022-09-07T09:52:41.749Z,98901.50
2022-09-07T09:55:36.925Z,98882.63
2022-09-07T10:04:46.437Z,98862.56
2022-09-07T10:07:33.013Z,98882.50
2022-09-07T10:10:19.627Z,98858.47
2022-09-07T10:13:08.706Z,98878.41
2022-09-07T10:16:01.223Z,98887.06
2022-09-07T10:18:56.815Z,98880.78
2022-09-07T10:21:58.006Z,98875.50
2022-09-07T10:24:44.485Z,98855.75
2022-09-07T10:27:37.174Z,98877.75
2022-09-07T10:30:23.709Z,98865.34
2022-09-07T10:34:25.732Z,98866.63
2022-09-07T10:36:53.976Z,98860.94
2022-09-07T10:40:27.970Z,98851.19
2022-09-07T10:43:22.300Z,98828.94
2022-09-07T10:54:29.403Z,98830.69
2022-09-07T10:56:50.950Z,98838.69
2022-09-07T11:00:10.960Z,98860.03
2022-09-07T11:03:29.562Z,98859.66
2022-09-07T11:06:25.612Z,98856.03
2022-09-07T11:09:49.508Z,98856.25
2022-09-07T11:12:38.397Z,98810.81
2022-09-07T11:15:35.352Z,98796.81
2022-09-07T11:18:32.964Z,98811.25
2022-09-07T11:24:36.762Z,98810.81
2022-09-07T11:27:31.380Z,98813.53
2022-09-07T11:30:29.838Z,98825.03
2022-09-07T11:33:23.085Z,98788.63
2022-09-07T11:36:16.152Z,98815.59
2022-09-07T11:39:13.020Z,98789.88
2022-09-07T11:45:16.180Z,98811.25
2022-09-07T11:48:32.081Z,98805.59
2022-09-07T11:51:35.885Z,98766.94
2022-09-07T11:54:31.988Z,98758.22
2022-09-07T11:57:43.515Z,98782.38
2022-09-07T12:00:42.082Z,98787.22
2022-09-07T12:03:54.170Z,98758.66
2022-09-07T12:06:46.868Z,98791.63
2022-09-07T12:09:52.114Z,98789.88
2022-09-07T12:12:56.539Z,98785.38
2022-09-07T12:16:40.363Z,98790.00
2022-09-07T12:19:28.220Z,98790.34
2022-09-07T12:22:20.435Z,98777.63
2022-09-07T12:25:18.022Z,98739.16
2022-09-07T12:28:04.658Z,98724.41
2022-09-07T12:31:02.220Z,98774.47
2022-09-07T12:34:47.309Z,98767.59
2022-09-07T12:37:33.579Z,98772.03
2022-09-07T12:40:29.204Z,98771.66
2022-09-07T12:43:15.630Z,98769.22
2022-09-07T12:46:02.769Z,98760.81
2022-09-07T12:49:07.805Z,98758.69
2022-09-07T12:52:15.610Z,98760.84
2022-09-07T12:55:27.854Z,98763.53
2022-09-07T12:58:42.958Z,98775.06
2022-09-07T13:01:41.217Z,98749.31
2022-09-07T13:04:52.805Z,98762.53
2022-09-07T13:07:59.287Z,98726.47
2022-09-07T13:10:50.995Z,98729.97
2022-09-07T13:19:53.715Z,98737.34
2022-09-07T13:22:40.181Z,98736.09
2022-09-07T13:25:27.030Z,98732.25
2022-09-07T13:28:28.347Z,98701.28
2022-09-07T13:31:46.946Z,98732.50
2022-09-07T13:34:36.772Z,98730.03
2022-09-07T13:37:25.795Z,98722.34
2022-09-07T13:40:18.624Z,98716.13
2022-09-07T13:43:06.064Z,98649.91
2022-09-07T13:45:55.628Z,98707.63
2022-09-07T13:48:51.073Z,98690.31
2022-09-07T13:51:50.577Z,98713.28
2022-09-07T13:54:58.458Z,98669.97
2022-09-07T13:57:47.857Z,98713.63
2022-09-07T14:00:34.697Z,98718.38
2022-09-07T14:03:23.972Z,98691.63
2022-09-07T14:06:22.391Z,98709.00
2022-09-07T14:09:08.892Z,98707.47
2022-09-07T14:11:55.372Z,98688.41
2022-09-07T14:14:41.573Z,98671.28
2022-09-07T14:17:27.926Z,98667.91
2022-09-07T14:20:17.107Z,98661.38
2022-09-07T14:23:03.632Z,98693.09
2022-09-07T14:26:21.811Z,98691.50
2022-09-07T14:29:21.744Z,98693.09
2022-09-07T14:32:14.853Z,98681.09
2022-09-07T14:35:02.720Z,98675.63
2022-09-07T14:37:49.853Z,98678.25
2022-09-07T14:40:36.730Z,98686.91
2022-09-07T14:43:30.154Z,98679.69
2022-09-07T14:46:25.472Z,98689.69
2022-09-07T14:49:20.742Z,98634.72
2022-09-07T14:52:07.261Z,98656.63
2022-09-07T14:54:53.742Z,98663.63
2022-09-07T14:57:40.277Z,98639.69
2022-09-07T15:00:31.089Z,98633.09
2022-09-07T15:03:50.466Z,98678.72
2022-09-07T15:09:49.055Z,98648.06
2022-09-07T15:12:44.134Z,98665.22
2022-09-07T15:15:37.373Z,98633.28
2022-09-07T15:18:54.387Z,98660.75
2022-09-07T15:21:40.756Z,98633.06
2022-09-07T15:24:27.403Z,98645.38
2022-09-07T15:27:28.670Z,98655.00
2022-09-07T15:30:17.445Z,98618.00
2022-09-07T15:33:04.151Z,98634.72
2022-09-07T15:35:52.157Z,98634.78
2022-09-07T15:41:45.590Z,98642.56
2022-09-07T15:44:32.402Z,98617.84
2022-09-07T15:50:25.512Z,98605.41
2022-09-07T15:56:20.170Z,98621.88
2022-09-07T15:59:07.124Z,98632.50
2022-09-07T16:01:53.930Z,98608.19
2022-09-07T16:04:40.758Z,98614.22
2022-09-07T16:08:24.927Z,98618.28
2022-09-07T16:10:33.906Z,98623.69
2022-09-07T16:13:20.558Z,98583.00
2022-09-07T16:16:07.863Z,98625.75
2022-09-07T16:18:54.557Z,98618.22
2022-09-07T16:21:41.501Z,98590.47
2022-09-07T16:24:28.287Z,98630.72
2022-09-07T16:27:15.006Z,98633.81
2022-09-07T16:30:01.476Z,98632.41
2022-09-07T16:32:47.983Z,98588.41
2022-09-07T16:35:34.420Z,98605.91
2022-09-07T16:41:31.741Z,98625.56
2022-09-07T16:44:18.192Z,98607.84
2022-09-07T16:47:04.791Z,98634.13
2022-09-07T16:49:51.811Z,98586.63
2022-09-07T16:52:38.284Z,98601.69
2022-09-07T16:55:24.567Z,98616.53
2022-09-07T17:01:20.484Z,98592.25
2022-09-07T17:04:11.005Z,98617.75
2022-09-07T17:06:57.684Z,98592.38
2022-09-07T17:09:43.855Z,98606.94
2022-09-07T17:12:30.238Z,98583.84
2022-09-07T17:15:16.919Z,98613.91
2022-09-07T17:18:03.165Z,98612.38
2022-09-07T17:20:58.378Z,98622.47
2022-09-07T17:23:51.961Z,98613.22
2022-09-07T17:26:42.739Z,98608.72
2022-09-07T17:29:32.908Z,98604.66
2022-09-07T17:32:24.481Z,98606.81
2022-09-07T17:35:11.731Z,98603.81
2022-09-07T17:37:58.335Z,98632.84
2022-09-07T17:40:44.698Z,98636.25
2022-09-07T17:43:41.587Z,98652.66
2022-09-07T17:46:34.453Z,98649.94
2022-09-07T17:49:20.898Z,98665.72
2022-09-07T17:52:07.518Z,98641.25
2022-09-07T17:54:55.410Z,98673.72
2022-09-07T17:57:41.597Z,98672.56
2022-09-07T18:00:27.976Z,98661.19
2022-09-07T18:03:14.312Z,98675.69
2022-09-07T18:06:01.222Z,98691.00
2022-09-07T18:08:47.808Z,98702.41
2022-09-07T18:11:50.580Z,98679.38
2022-09-07T18:14:37.229Z,98688.63
2022-09-07T18:17:23.438Z,98660.59
2022-09-07T18:20:09.927Z,98608.88
2022-09-07T18:22:57.571Z,98554.47
2022-09-07T18:25:44.447Z,98597.41
2022-09-07T18:31:37.407Z,98616.66
2022-09-07T18:34:23.688Z,98656.03
2022-09-07T18:37:12.008Z,98679.03
2022-09-07T18:39:58.382Z,98660.41
2022-09-07T18:42:46.274Z,98644.13
2022-09-07T18:45:32.465Z,98658.16
2022-09-07T18:48:18.907Z,98678.94
2022-09-07T18:51:06.021Z,98639.13
2022-09-07T18:53:52.386Z,98669.25
2022-09-07T18:56:38.799Z,98628.09
2022-09-07T18:59:25.949Z,98644.44
2022-09-07T19:02:12.178Z,98661.72
2022-09-07T19:08:04.957Z,98625.78
2022-09-07T19:10:51.267Z,98617.78
2022-09-07T19:13:39.346Z,98656.81
2022-09-07T19:16:27.610Z,98639.09
2022-09-07T19:19:14.422Z,98647.28
2022-09-07T19:22:02.397Z,98606.31
2022-09-07T19:24:48.648Z,98637.09
2022-09-07T19:27:34.977Z,98635.66
2022-09-07T19:30:21.776Z,98625.41
2022-09-07T19:33:11.929Z,98653.56
2022-09-07T19:36:06.489Z,98649.28
2022-09-07T19:38:52.656Z,98599.97
2022-09-07T19:41:42.374Z,98650.34
2022-09-07T19:44:28.479Z,98646.19
2022-09-07T19:47:14.810Z,98613.09
2022-09-07T19:50:01.360Z,98616.09
2022-09-07T19:52:48.813Z,98653.09
2022-09-07T19:55:35.188Z,98631.75
2022-09-07T19:58:21.654Z,98623.75
2022-09-07T20:01:11.087Z,98614.22
2022-09-07T20:03:59.729Z,98583.56
2022-09-07T20:06:47.988Z,98621.59
2022-09-07T20:09:34.165Z,98606.38
2022-09-07T20:12:20.565Z,98590.88
2022-09-07T20:15:07.702Z,98573.31
2022-09-07T20:17:54.313Z,98557.50
2022-09-07T20:20:40.708Z,98572.13
2022-09-07T20:23:26.945Z,98552.47
2022-09-07T20:26:16.246Z,98581.66
2022-09-07T20:29:23.825Z,98580.13
2022-09-07T20:32:09.307Z,98571.63
2022-09-07T20:34:56.961Z,98537.59
2022-09-07T20:37:43.636Z,98556.94
2022-09-07T20:40:30.226Z,98512.75
2022-09-07T20:43:16.341Z,98528.72
2022-09-07T20:46:02.878Z,98553.75
2022-09-07T20:48:49.145Z,98487.94
2022-09-07T20:51:35.306Z,98488.50
2022-09-07T20:54:21.414Z,98544.59
2022-09-07T20:57:07.677Z,98499.81
2022-09-07T20:59:54.080Z,98512.88
2022-09-07T21:02:40.450Z,98514.81
2022-09-07T21:05:26.647Z,98533.94
2022-09-07T21:08:13.525Z,98558.78
2022-09-07T21:11:08.543Z,98531.31
2022-09-07T21:13:57.249Z,98508.69
2022-09-07T21:16:43.644Z,98497.69
2022-09-07T21:19:30.191Z,98548.00
2022-09-07T21:22:16.330Z,98550.78
2022-09-07T21:25:02.839Z,98567.13
2022-09-07T21:27:49.144Z,98568.19
2022-09-07T21:30:35.832Z,98583.97
2022-09-07T21:33:22.122Z,98549.63
2022-09-07T21:36:12.857Z,98554.00
2022-09-07T21:38:59.406Z,98546.44
2022-09-07T21:41:45.538Z,98575.44
2022-09-07T21:44:31.872Z,98586.50
2022-09-07T21:47:18.049Z,98537.75
2022-09-07T21:50:05.034Z,98562.41
2022-09-07T21:52:51.427Z,98543.53
2022-09-07T21:55:37.621Z,98570.06
2022-09-07T21:58:25.133Z,98529.91
2022-09-07T22:01:17.343Z,98563.03
2022-09-07T22:04:06.813Z,98545.78
2022-09-07T22:06:53.299Z,98558.56
2022-09-07T22:09:39.654Z,98556.13
2022-09-07T22:12:25.970Z,98545.63
2022-09-07T22:15:12.125Z,98526.91
2022-09-07T22:17:58.393Z,98514.19
2022-09-07T22:20:44.748Z,98533.06
2022-09-07T22:23:32.916Z,98558.28
2022-09-07T22:26:22.126Z,98548.28
2022-09-07T22:29:11.630Z,98530.97
2022-09-07T22:31:58.352Z,98515.09
2022-09-07T22:34:44.587Z,98521.03
2022-09-07T22:37:30.990Z,98474.00
2022-09-07T22:40:17.301Z,98472.31
2022-09-07T22:43:03.834Z,98502.84
2022-09-07T22:45:50.416Z,98513.19
2022-09-07T22:48:37.262Z,98520.03
2022-09-07T22:51:25.224Z,98507.88
2022-09-07T22:54:12.332Z,98494.88
2022-09-07T22:56:58.434Z,98458.97
2022-09-07T22:59:44.877Z,98494.88
2022-09-07T23:02:31.613Z,98480.81
2022-09-07T23:05:18.025Z,98473.03
2022-09-07T23:08:04.421Z,98489.34
2022-09-07T23:10:50.998Z,98502.19
2022-09-07T23:13:37.441Z,98481.06
2022-09-07T23:16:24.907Z,98489.34
2022-09-07T23:19:16.733Z,98486.19
2022-09-07T23:22:03.680Z,98447.00
2022-09-07T23:24:50.247Z,98505.72
2022-09-07T23:27:36.773Z,98498.75
2022-09-07T23:30:23.153Z,98471.69
2022-09-07T23:33:09.308Z,98476.09
2022-09-07T23:36:06.901Z,98471.94
2022-09-07T23:38:55.218Z,98479.34
2022-09-07T23:41:41.443Z,98474.13
2022-09-07T23:44:27.565Z,98435.84
2022-09-07T23:47:14.719Z,98493.59
2022-09-07T23:50:00.962Z,98453.78
2022-09-07T23:52:47.139Z,98470.22
2022-09-07T23:55:33.482Z,98452.47
2022-09-07T23:58:21.476Z,98479.13
